Heat Index [SAI AWOS/ASOS Display]_________FAA Disclaimer: "Not for use in aviation at this time______________" Untitled Document
JACK BARSTOW Airport
000
02:16
15/12/26
00
N/A
N/A
30.40
N/A
635
27(F), -3(C)
25(F), -4(C)
27 F
93%
CLR
10
N/A
N/A
N/A
02:16 zulu Wind Calm, Altimeter 30.40
METAR KIKW 260216Z AUTO 00000KT 10SM CLR M03/M04 A3040 A02
METAR:
FAA Disclaimer--Advisory Use ONLY, not for flight info-- Jack Barstow Airport - KIKW - where all are Invited and Kindly Welcomed! Self-serve fuel available 24/7: 100LL $4.88; JetA w/Prist $4.89. [updated 08/11/15]
INFO:
Wind Direction:
Wind Speed:
Wind Gust:
Wind Variable:
Altimeter:
Dens Alt:
Elev:
Temp:
Dwpt:
Wind Chill
Rel Humidity:
Ceiling:
Visibility:
Prsnt Wea:
PCPN:
Remarks:
NOTICE--Current weather data is more than 15 minutes old. The SAI AWOS/ASOS Display is inoperative at this time.
How to read the WebPage